x

West Orca Bay - 8nm Nw Of Hinchinbrook Is , Ak (46060) Wave Buoy

4:50am - Tue 27th Jan 2015 All times are AKST. -9 hours from GMT.

  • Sig Wave height 2.0ft
  • Swell Direction
  • Peak Period 8s
  • Average Period 5s
  • Wind
    9mph, 11mph gusts
  • Sea Temp 42°f
  • Air Temp 31°f
  • Sea Pressure 1012.9mb
  • West Orca Bay - 8nm Nw Of Hinchinbrook  Is , Ak
  • West Orca Bay - 8nm Nw Of Hinchinbrook  Is , Ak

More Historic Weather Station data

Upgrade to MSW Pro to gain access to the past 30 days of data for over 8000 Wavebouys and Weather Stations around the globe.

Join Pro

Comparision Forecast

View Surf forecast
   
Tue 01/27 4:50am 2ft 8s 5s 9 11 mph 1012.9mb 42f 31f
3:50am 2.5ft 9s 5s 11 16 mph 1013mb 42f 32f
2:50am 2ft 10s 5s 13 16 mph 1013.2mb 42f 32f
1:50am 2ft 9s 5s 11 13 mph 1013.3mb 42f 32f
12:50am 1.6ft 11s 5s 11 13 mph 1013.4mb 42f 32f
Mon 01/26 11:50pm 2ft 11s 6s 9 11 mph 1013.2mb 42f 33f
10:50pm 2ft 10s 5s 9 11 mph 1013.1mb 42f 32f
9:50pm 2ft 11s 5s 4 7 mph 1013.1mb 42f 32f
8:50pm 2ft 10s 5s 2 4 mph 1013.2mb 42f 32f
7:50pm 2ft 10s 5s 4
mph
1013.2mb 42f 32f
6:50pm 2ft 11s 5s 7 9 mph 1013.2mb 42f 32f
5:50pm 2ft 11s 5s 4 7 mph 1013.4mb 42f 32f
4:50pm 2ft 10s 4s 9 11 mph 1013.3mb 42f 32f
3:50pm 2.5ft 10s 5s 11 13 mph 1013.4mb 42f 31f
2:50pm 2ft 9s 4s 13 18 mph 1013.7mb 42f 31f
1:50pm 2.5ft 10s 5s 13 16 mph 1014.1mb 42f 31f
12:50pm 2ft 10s 4s 13 16 mph 1014.6mb 42f 31f
11:50am 1.6ft 10s 4s 13 18 mph 1014.9mb 42f 31f
10:50am 2ft 11s 5s 7 11 mph 1014.9mb 42f 31f
9:50am 1.6ft 11s 5s 9 11 mph 1014.5mb 42f 31f
8:50am 1.6ft 11s 6s 7 9 mph 1014.2mb 42f 31f
7:50am 1.6ft 11s 6s 7 9 mph 1013.8mb 43f 30f
6:50am 1.6ft 11s 5s 7 11 mph 1013.8mb 43f 30f
5:50am 1.6ft 10s 5s 4 9 mph 1013.8mb 43f 29f
4:50am 1.6ft 11s 5s  -  mph 1013.6mb 43f 29f
3:50am 1.6ft 11s 5s 2 4 mph 1013.5mb 43f 29f
2:50am 1.6ft 11s 4s  -  2 mph 1013.2mb 43f 28f
1:50am 2ft 10s 4s 4 7 mph 1013mb 42f 28f
12:50am 2.5ft 4s 4s 2 4 mph 1012.4mb 42f 28f
Sun 01/25 11:50pm 2.5ft 4s 4s 4 7 mph 1011.6mb 42f 28f
10:50pm 2.5ft 5s 4s 7 11 mph 1010.7mb 43f 28f
9:50pm 3ft 5s 4s 11 16 mph 1009.8mb 43f 28f
8:50pm 3ft 5s 4s 13 16 mph 1008.9mb 43f 28f
7:50pm 3.5ft 5s 4s 16 20 mph 1007.8mb 43f 28f
6:50pm 3.5ft 5s 4s 16 22 mph 1006.7mb 43f 28f
5:50pm 3.5ft 5s 4s 18 25 mph 1005.4mb 43f 28f
4:50pm 3.5ft 5s 4s 18 25 mph 1004.5mb 43f 27f
3:50pm 3.5ft 5s 4s 18 22 mph 1003.5mb 43f 28f
2:50pm 3.5ft 5s 4s 18 25 mph 1002.6mb 43f 28f
1:50pm 3.5ft 5s 4s 18 22 mph 1001.8mb 43f 28f
12:50pm 3.5ft 5s 4s 16 20 mph 1001mb 43f 28f
11:50am 3.5ft 5s 4s 16 20 mph 1000.2mb 43f 28f
10:50am 3.5ft 4s 4s 18 20 mph 999.2mb 43f 29f
9:50am 3.5ft 5s 4s 16 22 mph 998.3mb 43f 29f
8:50am 3.5ft 5s 4s 16 20 mph 997.3mb 43f 29f
7:50am 3.5ft 5s 4s 18 22 mph 996.1mb 43f 29f
6:50am 3.5ft 5s 4s 18 22 mph 995.3mb 43f 29f
5:50am 3.5ft 5s 4s 20 25 mph 994.3mb 44f 29f
4:50am 4.5ft 5s 4s 20 25 mph 993.3mb 44f 29f
3:50am 4.5ft 5s 5s 20 25 mph 992.3mb 44f 29f
2:50am 4.5ft 5s 4s 20 22 mph 991.6mb 44f 30f
1:50am 5ft 5s 5s 22 27 mph 990.4mb 43f 31f
12:50am 4.5ft 5s 5s 25 29 mph 989.7mb 43f 31f
Sat 01/24 11:50pm 4.5ft 5s 4s 25 31 mph 989mb 43f 32f
10:50pm 4.5ft 5s 4s 25 29 mph 988.3mb 43f 32f
9:50pm 4.5ft 5s 4s 25 29 mph 988.2mb 43f 33f
8:50pm 4.5ft 4s 4s 25 29 mph 988.1mb 43f 34f
7:50pm 3ft 4s 4s 20 25 mph 988.3mb 43f 34f
6:50pm  -   -   -  4
mph
988.3mb 43f 36f
5:50pm 2.5ft 10s 5s 11
mph
988.5mb 43f 35f
4:50pm 2.5ft 11s 5s 9 11 mph 989.1mb 43f 35f
3:50pm 2.5ft 10s 5s 13 16 mph 989.8mb 43f 36f
2:50pm 3ft 11s 4s 13 16 mph 990.5mb 43f 38f
1:50pm 3.5ft 11s 5s 22 29 mph 991.6mb 43f 35f
12:50pm 3ft 11s 5s 13 18 mph 993.4mb 43f 33f
11:50am 2.5ft 11s 6s 11 16 mph 995.2mb 43f 37f
10:50am 2.5ft 11s 5s 4
mph
996.4mb 43f 37f
9:50am 2.5ft 11s 6s 4 7 mph 997.4mb 43f 36f
8:50am 2.5ft 11s 5s 11 16 mph 997.6mb 43f 37f
7:50am 3ft 12s 5s 7 9 mph 997.8mb 43f 39f
6:50am 3.5ft 11s 4s 13 16 mph 997.8mb 43f 39f
5:50am  -   -   -  16 20 mph 997.8mb 43f 40f
4:50am 3.5ft 4s 4s 22 29 mph 997.4mb 43f 41f
3:50am 4.5ft 11s 4s 25 29 mph 996.7mb 43f 42f
2:50am  -   -   -  25 29 mph 996.2mb 43f 42f
1:50am 3ft 12s 6s 20 25 mph 995.5mb 43f 42f
12:50am 3ft 12s 6s 9 11 mph 995mb 43f 42f
Fri 01/23 11:50pm 3ft 12s 6s 13 20 mph 994.2mb 44f 42f
10:50pm 2.5ft 13s 8s 13 16 mph 993.4mb 44f 42f
9:50pm 3ft 12s 9s 7 9 mph 992.6mb 44f 42f
8:50pm 2.5ft 11s 9s 7 9 mph 991.8mb 44f 42f
7:50pm 2.5ft 13s 9s 7 9 mph 991.1mb 44f 41f
6:50pm 2.5ft 13s 8s 7
mph
990.4mb 44f 42f
5:50pm 2.5ft 10s 7s 4
mph
989.8mb 44f 42f
4:50pm 3ft 10s 7s 7
mph
989.3mb 44f 42f
3:50pm 3.5ft 11s 7s 7
mph
988.7mb 45f 42f
2:50pm 3.5ft 11s 7s 4 7 mph 988.6mb 45f 43f